SCVD/ZAL METAR and TAF weather

Enter ICAO airport designator
Station Type Date Time Source
SCVD METAR 2021/03/05 08:00 UTC NOAA

SCVD 050800Z AUTO 29001KT 9999 NCD 10/10 Q1010


Station Type Date Time Source
SCVD Decoded METAR 2021/03/05 08:00 UTC NOAA

Valdivia, Chile (SCVD) 39-37S 073-05W
Mar 05, 2021 - 03:00 AM EST / 2021.03.05 0800 UTC
Wind: from the WNW (290 degrees) at 1 MPH (1 KT):0
Visibility: greater than 7 mile(s):0
Temperature: 50 F (10 C)
Dew Point: 50 F (10 C)
Relative Humidity: 100%
Pressure (altimeter): 29.83 in. Hg (1010 hPa)
ob: SCVD 050800Z AUTO 29001KT 9999 NCD 10/10 Q1010
cycle: 8

Station Type Date Time Source
SCVD TAF 2021/03/04 12:00 UTC NOAA

TAF SCVD 041010Z 0412/0424 15004KT 9999 SCT016 TN13/0412Z TX28/0420Z
BECMG 0414/0416 18010KT CAVOK
BECMG 0419/0421 21004KT

Example: see airport list